sensor_id;sensor_type;location;lat;lon;timestamp;temperature;humidity
65692;DHT22;52411;52.716;6.696;2022-08-01T00:00:30;18.70;99.90
65692;DHT22;52411;52.716;6.696;2022-08-01T00:02:56;18.70;99.90
65692;DHT22;52411;52.716;6.696;2022-08-01T00:05:21;18.60;99.90
65692;DHT22;52411;52.716;6.696;2022-08-01T00:07:47;18.70;99.90
65692;DHT22;52411;52.716;6.696;2022-08-01T00:10:14;18.60;99.90
65692;DHT22;52411;52.716;6.696;2022-08-01T00:12:41;18.70;99.90
65692;DHT22;52411;52.716;6.696;2022-08-01T00:15:09;18.60;99.90
65692;DHT22;52411;52.716;6.696;2022-08-01T00:17:35;18.70;99.90
65692;DHT22;52411;52.716;6.696;2022-08-01T00:20:00;18.60;99.90
65692;DHT22;52411;52.716;6.696;2022-08-01T00:22:27;18.60;99.90
65692;DHT22;52411;52.716;6.696;2022-08-01T00:24:53;18.70;99.90
65692;DHT22;52411;52.716;6.696;2022-08-01T00:27:19;18.70;99.90
65692;DHT22;52411;52.716;6.696;2022-08-01T00:29:44;18.70;99.90
65692;DHT22;52411;52.716;6.696;2022-08-01T00:32:10;18.70;99.90
65692;DHT22;52411;52.716;6.696;2022-08-01T00:34:35;18.70;99.90
65692;DHT22;52411;52.716;6.696;2022-08-01T00:37:01;18.70;99.90
65692;DHT22;52411;52.716;6.696;2022-08-01T00:39:27;18.70;99.90
65692;DHT22;52411;52.716;6.696;2022-08-01T00:41:52;18.70;99.90
65692;DHT22;52411;52.716;6.696;2022-08-01T00:44:18;18.70;99.90
65692;DHT22;52411;52.716;6.696;2022-08-01T00:46:44;18.70;99.90
65692;DHT22;52411;52.716;6.696;2022-08-01T00:49:09;18.70;99.90
65692;DHT22;52411;52.716;6.696;2022-08-01T00:51:35;18.70;99.90
65692;DHT22;52411;52.716;6.696;2022-08-01T00:54:00;18.60;99.90
65692;DHT22;52411;52.716;6.696;2022-08-01T00:56:27;18.70;99.90
65692;DHT22;52411;52.716;6.696;2022-08-01T00:58:56;18.60;99.90
65692;DHT22;52411;52.716;6.696;2022-08-01T01:01:22;18.60;99.90
65692;DHT22;52411;52.716;6.696;2022-08-01T01:03:49;18.60;99.90
65692;DHT22;52411;52.716;6.696;2022-08-01T01:17:15;18.60;99.90
65692;DHT22;52411;52.716;6.696;2022-08-01T01:19:45;18.60;99.90
65692;DHT22;52411;52.716;6.696;2022-08-01T01:30:08;18.50;99.90
65692;DHT22;52411;52.716;6.696;2022-08-01T01:32:44;18.50;99.90
65692;DHT22;52411;52.716;6.696;2022-08-01T01:35:19;18.50;99.90
65692;DHT22;52411;52.716;6.696;2022-08-01T01:37:47;18.50;99.90
65692;DHT22;52411;52.716;6.696;2022-08-01T01:40:14;18.50;99.90
65692;DHT22;52411;52.716;6.696;2022-08-01T01:42:41;18.50;99.90
65692;DHT22;52411;52.716;6.696;2022-08-01T01:45:08;18.50;99.90
65692;DHT22;52411;52.716;6.696;2022-08-01T01:47:36;18.50;99.90
65692;DHT22;52411;52.716;6.696;2022-08-01T01:50:04;18.40;99.90
65692;DHT22;52411;52.716;6.696;2022-08-01T01:52:32;18.40;99.90
65692;DHT22;52411;52.716;6.696;2022-08-01T01:54:59;18.40;99.90
65692;DHT22;52411;52.716;6.696;2022-08-01T01:57:28;18.40;99.90
65692;DHT22;52411;52.716;6.696;2022-08-01T01:59:55;18.40;99.90
65692;DHT22;52411;52.716;6.696;2022-08-01T02:02:22;18.40;99.90
65692;DHT22;52411;52.716;6.696;2022-08-01T02:04:50;18.40;99.90
65692;DHT22;52411;52.716;6.696;2022-08-01T02:07:21;18.40;99.90
65692;DHT22;52411;52.716;6.696;2022-08-01T02:09:48;18.40;99.90
65692;DHT22;52411;52.716;6.696;2022-08-01T02:12:16;18.40;99.90
65692;DHT22;52411;52.716;6.696;2022-08-01T02:14:43;18.40;99.90
65692;DHT22;52411;52.716;6.696;2022-08-01T02:17:12;18.40;99.90
65692;DHT22;52411;52.716;6.696;2022-08-01T02:19:38;18.40;99.90
65692;DHT22;52411;52.716;6.696;2022-08-01T02:22:05;18.40;99.90
65692;DHT22;52411;52.716;6.696;2022-08-01T02:24:44;18.40;99.90
65692;DHT22;52411;52.716;6.696;2022-08-01T02:27:14;18.40;99.90
65692;DHT22;52411;52.716;6.696;2022-08-01T02:29:50;18.40;99.90
65692;DHT22;52411;52.716;6.696;2022-08-01T02:32:23;18.40;99.90
65692;DHT22;52411;52.716;6.696;2022-08-01T02:34:51;18.30;99.90
65692;DHT22;52411;52.716;6.696;2022-08-01T02:37:19;18.40;99.90
65692;DHT22;52411;52.716;6.696;2022-08-01T02:39:48;18.40;99.90
65692;DHT22;52411;52.716;6.696;2022-08-01T02:42:18;18.30;99.90
65692;DHT22;52411;52.716;6.696;2022-08-01T02:44:44;18.30;99.90
65692;DHT22;52411;52.716;6.696;2022-08-01T02:47:12;18.40;99.90
65692;DHT22;52411;52.716;6.696;2022-08-01T02:49:45;18.30;99.90
65692;DHT22;52411;52.716;6.696;2022-08-01T02:52:14;18.20;99.90
65692;DHT22;52411;52.716;6.696;2022-08-01T02:54:42;18.20;99.90
65692;DHT22;52411;52.716;6.696;2022-08-01T02:57:09;18.20;99.90
65692;DHT22;52411;52.716;6.696;2022-08-01T02:59:37;18.20;99.90
65692;DHT22;52411;52.716;6.696;2022-08-01T03:02:04;18.10;99.90
65692;DHT22;52411;52.716;6.696;2022-08-01T03:04:33;18.10;99.90
65692;DHT22;52411;52.716;6.696;2022-08-01T03:07:00;18.10;99.90
65692;DHT22;52411;52.716;6.696;2022-08-01T03:09:28;18.10;99.90
65692;DHT22;52411;52.716;6.696;2022-08-01T03:11:58;18.00;99.90
65692;DHT22;52411;52.716;6.696;2022-08-01T03:14:25;18.10;99.90
65692;DHT22;52411;52.716;6.696;2022-08-01T03:16:52;18.10;99.90
65692;DHT22;52411;52.716;6.696;2022-08-01T03:19:18;18.00;99.90
65692;DHT22;52411;52.716;6.696;2022-08-01T03:21:47;18.10;99.90
65692;DHT22;52411;52.716;6.696;2022-08-01T03:24:14;18.10;99.90
65692;DHT22;52411;52.716;6.696;2022-08-01T03:26:42;18.10;99.90
65692;DHT22;52411;52.716;6.696;2022-08-01T03:29:14;18.10;99.90
65692;DHT22;52411;52.716;6.696;2022-08-01T03:31:44;18.10;99.90
65692;DHT22;52411;52.716;6.696;2022-08-01T03:34:10;18.10;99.90
65692;DHT22;52411;52.716;6.696;2022-08-01T03:36:45;18.10;99.90
65692;DHT22;52411;52.716;6.696;2022-08-01T03:39:12;18.10;99.90
65692;DHT22;52411;52.716;6.696;2022-08-01T03:41:41;18.10;99.90
65692;DHT22;52411;52.716;6.696;2022-08-01T03:44:13;18.10;99.90
65692;DHT22;52411;52.716;6.696;2022-08-01T03:46:43;18.00;99.90
65692;DHT22;52411;52.716;6.696;2022-08-01T03:49:38;18.00;99.90
65692;DHT22;52411;52.716;6.696;2022-08-01T03:52:07;18.00;99.90
65692;DHT22;52411;52.716;6.696;2022-08-01T03:54:36;18.00;99.90
65692;DHT22;52411;52.716;6.696;2022-08-01T03:57:04;18.00;99.90
65692;DHT22;52411;52.716;6.696;2022-08-01T03:59:31;18.00;99.90
65692;DHT22;52411;52.716;6.696;2022-08-01T04:01:57;18.00;99.90
65692;DHT22;52411;52.716;6.696;2022-08-01T04:04:24;18.00;99.90
65692;DHT22;52411;52.716;6.696;2022-08-01T04:06:51;18.00;99.90
65692;DHT22;52411;52.716;6.696;2022-08-01T04:09:20;17.90;99.90
65692;DHT22;52411;52.716;6.696;2022-08-01T04:11:46;18.00;99.90
65692;DHT22;52411;52.716;6.696;2022-08-01T04:14:12;17.90;99.90
65692;DHT22;52411;52.716;6.696;2022-08-01T04:16:38;17.90;99.90
65692;DHT22;52411;52.716;6.696;2022-08-01T04:19:04;17.90;99.90
65692;DHT22;52411;52.716;6.696;2022-08-01T04:21:34;17.90;99.90
65692;DHT22;52411;52.716;6.696;2022-08-01T04:24:03;18.00;99.90
65692;DHT22;52411;52.716;6.696;2022-08-01T04:26:32;17.90;99.90
65692;DHT22;52411;52.716;6.696;2022-08-01T04:29:02;17.90;99.90
65692;DHT22;52411;52.716;6.696;2022-08-01T04:31:30;17.90;99.90
65692;DHT22;52411;52.716;6.696;2022-08-01T04:33:57;17.90;99.90
65692;DHT22;52411;52.716;6.696;2022-08-01T04:36:25;17.90;99.90
65692;DHT22;52411;52.716;6.696;2022-08-01T04:38:57;17.90;99.90
65692;DHT22;52411;52.716;6.696;2022-08-01T04:41:25;17.90;99.90
65692;DHT22;52411;52.716;6.696;2022-08-01T04:43:52;17.90;99.90
65692;DHT22;52411;52.716;6.696;2022-08-01T04:46:18;17.90;99.90
65692;DHT22;52411;52.716;6.696;2022-08-01T04:48:47;17.90;99.90
65692;DHT22;52411;52.716;6.696;2022-08-01T04:51:17;17.90;99.90
65692;DHT22;52411;52.716;6.696;2022-08-01T04:53:45;17.90;99.90
65692;DHT22;52411;52.716;6.696;2022-08-01T04:56:14;17.90;99.90
65692;DHT22;52411;52.716;6.696;2022-08-01T04:58:43;17.90;99.90
65692;DHT22;52411;52.716;6.696;2022-08-01T05:01:10;17.90;99.90
65692;DHT22;52411;52.716;6.696;2022-08-01T05:03:36;17.90;99.90
65692;DHT22;52411;52.716;6.696;2022-08-01T05:06:02;17.90;99.90
65692;DHT22;52411;52.716;6.696;2022-08-01T05:08:28;17.90;99.90
65692;DHT22;52411;52.716;6.696;2022-08-01T05:10:55;17.90;99.90
65692;DHT22;52411;52.716;6.696;2022-08-01T05:13:20;17.90;99.90
65692;DHT22;52411;52.716;6.696;2022-08-01T05:15:46;18.00;99.90
65692;DHT22;52411;52.716;6.696;2022-08-01T05:18:12;17.90;99.90
65692;DHT22;52411;52.716;6.696;2022-08-01T05:20:37;17.90;99.90
65692;DHT22;52411;52.716;6.696;2022-08-01T05:23:04;17.90;99.90
65692;DHT22;52411;52.716;6.696;2022-08-01T05:25:30;17.90;99.90
65692;DHT22;52411;52.716;6.696;2022-08-01T05:27:56;17.90;99.90
65692;DHT22;52411;52.716;6.696;2022-08-01T05:30:21;17.90;99.90
65692;DHT22;52411;52.716;6.696;2022-08-01T05:32:47;17.90;99.90
65692;DHT22;52411;52.716;6.696;2022-08-01T05:35:13;17.90;99.90
65692;DHT22;52411;52.716;6.696;2022-08-01T05:37:38;17.90;99.90
65692;DHT22;52411;52.716;6.696;2022-08-01T05:40:05;17.90;99.90
65692;DHT22;52411;52.716;6.696;2022-08-01T05:42:31;17.80;99.90
65692;DHT22;52411;52.716;6.696;2022-08-01T05:44:56;17.80;99.90
65692;DHT22;52411;52.716;6.696;2022-08-01T05:47:22;17.80;99.90
65692;DHT22;52411;52.716;6.696;2022-08-01T05:49:47;17.70;99.90
65692;DHT22;52411;52.716;6.696;2022-08-01T05:52:13;17.70;99.90
65692;DHT22;52411;52.716;6.696;2022-08-01T05:54:39;17.60;99.90
65692;DHT22;52411;52.716;6.696;2022-08-01T05:57:05;17.60;99.90
65692;DHT22;52411;52.716;6.696;2022-08-01T05:59:31;17.50;99.90
65692;DHT22;52411;52.716;6.696;2022-08-01T06:01:57;17.40;99.90
65692;DHT22;52411;52.716;6.696;2022-08-01T06:04:22;17.40;99.90
65692;DHT22;52411;52.716;6.696;2022-08-01T06:06:48;17.40;99.90
65692;DHT22;52411;52.716;6.696;2022-08-01T06:09:14;17.40;99.90
65692;DHT22;52411;52.716;6.696;2022-08-01T06:11:40;17.50;99.90
65692;DHT22;52411;52.716;6.696;2022-08-01T06:14:05;17.60;99.90
65692;DHT22;52411;52.716;6.696;2022-08-01T06:16:31;17.60;99.90
65692;DHT22;52411;52.716;6.696;2022-08-01T06:18:57;17.70;99.90
65692;DHT22;52411;52.716;6.696;2022-08-01T06:21:23;17.80;99.90
65692;DHT22;52411;52.716;6.696;2022-08-01T06:23:48;17.90;99.90
65692;DHT22;52411;52.716;6.696;2022-08-01T06:26:17;18.00;99.90
65692;DHT22;52411;52.716;6.696;2022-08-01T06:28:43;18.10;99.90
65692;DHT22;52411;52.716;6.696;2022-08-01T06:31:08;18.20;99.90
65692;DHT22;52411;52.716;6.696;2022-08-01T06:33:36;18.20;99.90
65692;DHT22;52411;52.716;6.696;2022-08-01T06:36:02;18.30;99.90
65692;DHT22;52411;52.716;6.696;2022-08-01T06:38:28;18.30;99.90
65692;DHT22;52411;52.716;6.696;2022-08-01T06:40:54;18.30;99.90
65692;DHT22;52411;52.716;6.696;2022-08-01T06:43:19;18.40;99.90
65692;DHT22;52411;52.716;6.696;2022-08-01T06:45:46;18.50;99.90
65692;DHT22;52411;52.716;6.696;2022-08-01T06:48:12;18.60;99.90
65692;DHT22;52411;52.716;6.696;2022-08-01T06:50:38;18.60;99.90
65692;DHT22;52411;52.716;6.696;2022-08-01T06:53:04;18.60;99.90
65692;DHT22;52411;52.716;6.696;2022-08-01T06:55:30;18.60;99.90
65692;DHT22;52411;52.716;6.696;2022-08-01T06:57:56;18.80;99.90
65692;DHT22;52411;52.716;6.696;2022-08-01T07:00:23;18.90;99.90
65692;DHT22;52411;52.716;6.696;2022-08-01T07:02:50;19.00;99.90
65692;DHT22;52411;52.716;6.696;2022-08-01T07:05:16;19.10;99.90
65692;DHT22;52411;52.716;6.696;2022-08-01T07:07:42;18.90;99.90
65692;DHT22;52411;52.716;6.696;2022-08-01T07:10:08;18.90;99.90
65692;DHT22;52411;52.716;6.696;2022-08-01T07:12:34;18.70;99.90
65692;DHT22;52411;52.716;6.696;2022-08-01T07:15:03;18.60;99.90
65692;DHT22;52411;52.716;6.696;2022-08-01T07:17:29;18.60;99.90
65692;DHT22;52411;52.716;6.696;2022-08-01T07:19:55;18.60;99.90
65692;DHT22;52411;52.716;6.696;2022-08-01T07:22:20;18.70;99.90
65692;DHT22;52411;52.716;6.696;2022-08-01T07:24:46;18.80;99.90
65692;DHT22;52411;52.716;6.696;2022-08-01T07:27:12;18.90;99.90
65692;DHT22;52411;52.716;6.696;2022-08-01T07:29:37;19.00;99.90
65692;DHT22;52411;52.716;6.696;2022-08-01T07:32:03;19.00;99.90
65692;DHT22;52411;52.716;6.696;2022-08-01T07:34:29;19.00;99.90
65692;DHT22;52411;52.716;6.696;2022-08-01T07:36:55;18.90;99.90
65692;DHT22;52411;52.716;6.696;2022-08-01T07:39:20;19.00;99.90
65692;DHT22;52411;52.716;6.696;2022-08-01T07:41:46;19.10;99.90
65692;DHT22;52411;52.716;6.696;2022-08-01T07:44:12;19.20;99.90
65692;DHT22;52411;52.716;6.696;2022-08-01T07:46:37;19.30;99.90
65692;DHT22;52411;52.716;6.696;2022-08-01T07:49:03;19.40;99.90
65692;DHT22;52411;52.716;6.696;2022-08-01T07:51:28;19.40;99.90
65692;DHT22;52411;52.716;6.696;2022-08-01T07:53:54;19.50;99.90
65692;DHT22;52411;52.716;6.696;2022-08-01T07:56:20;19.50;99.90
65692;DHT22;52411;52.716;6.696;2022-08-01T07:58:45;19.40;99.90
65692;DHT22;52411;52.716;6.696;2022-08-01T08:01:12;19.40;99.90
65692;DHT22;52411;52.716;6.696;2022-08-01T08:03:37;19.40;99.90
65692;DHT22;52411;52.716;6.696;2022-08-01T08:06:03;19.50;99.90
65692;DHT22;52411;52.716;6.696;2022-08-01T08:08:29;19.50;99.90
65692;DHT22;52411;52.716;6.696;2022-08-01T08:10:54;19.60;99.90
65692;DHT22;52411;52.716;6.696;2022-08-01T08:13:20;19.70;99.90
65692;DHT22;52411;52.716;6.696;2022-08-01T08:15:47;19.80;99.90
65692;DHT22;52411;52.716;6.696;2022-08-01T08:18:12;19.90;99.90
65692;DHT22;52411;52.716;6.696;2022-08-01T08:20:38;19.90;99.90
65692;DHT22;52411;52.716;6.696;2022-08-01T08:23:03;19.90;99.90
65692;DHT22;52411;52.716;6.696;2022-08-01T08:25:49;19.90;99.90
65692;DHT22;52411;52.716;6.696;2022-08-01T08:28:15;19.90;99.90
65692;DHT22;52411;52.716;6.696;2022-08-01T08:30:40;19.90;99.90
65692;DHT22;52411;52.716;6.696;2022-08-01T08:33:06;19.90;99.90
65692;DHT22;52411;52.716;6.696;2022-08-01T08:35:31;19.90;99.90
65692;DHT22;52411;52.716;6.696;2022-08-01T08:37:57;19.90;99.90
65692;DHT22;52411;52.716;6.696;2022-08-01T08:40:29;20.10;99.90
65692;DHT22;52411;52.716;6.696;2022-08-01T08:42:55;20.20;99.90
65692;DHT22;52411;52.716;6.696;2022-08-01T08:45:22;20.20;99.90
65692;DHT22;52411;52.716;6.696;2022-08-01T08:47:48;20.30;99.90
65692;DHT22;52411;52.716;6.696;2022-08-01T08:50:15;20.50;99.90
65692;DHT22;52411;52.716;6.696;2022-08-01T08:52:43;20.40;99.90
65692;DHT22;52411;52.716;6.696;2022-08-01T08:55:11;20.50;99.90
65692;DHT22;52411;52.716;6.696;2022-08-01T08:57:40;20.50;99.90
65692;DHT22;52411;52.716;6.696;2022-08-01T09:00:08;20.50;99.90
65692;DHT22;52411;52.716;6.696;2022-08-01T09:02:35;20.50;99.90
65692;DHT22;52411;52.716;6.696;2022-08-01T09:05:02;20.60;99.90
65692;DHT22;52411;52.716;6.696;2022-08-01T09:07:27;20.60;99.90
65692;DHT22;52411;52.716;6.696;2022-08-01T09:09:53;20.80;99.90
65692;DHT22;52411;52.716;6.696;2022-08-01T09:12:19;20.80;99.90
65692;DHT22;52411;52.716;6.696;2022-08-01T09:14:46;20.90;99.90
65692;DHT22;52411;52.716;6.696;2022-08-01T09:17:12;20.90;99.90
65692;DHT22;52411;52.716;6.696;2022-08-01T09:22:11;20.60;99.90
65692;DHT22;52411;52.716;6.696;2022-08-01T09:24:39;20.60;99.90
65692;DHT22;52411;52.716;6.696;2022-08-01T09:27:17;20.60;99.90
65692;DHT22;52411;52.716;6.696;2022-08-01T09:29:43;20.70;99.90
65692;DHT22;52411;52.716;6.696;2022-08-01T09:32:10;20.80;99.90
65692;DHT22;52411;52.716;6.696;2022-08-01T09:34:36;20.80;99.90
65692;DHT22;52411;52.716;6.696;2022-08-01T09:37:02;20.60;99.90
65692;DHT22;52411;52.716;6.696;2022-08-01T09:39:30;20.60;99.90
65692;DHT22;52411;52.716;6.696;2022-08-01T09:41:59;20.60;99.90
65692;DHT22;52411;52.716;6.696;2022-08-01T09:44:40;20.80;99.90
65692;DHT22;52411;52.716;6.696;2022-08-01T09:47:06;20.80;99.90
65692;DHT22;52411;52.716;6.696;2022-08-01T09:49:33;20.70;99.90
65692;DHT22;52411;52.716;6.696;2022-08-01T09:52:19;20.50;99.90
65692;DHT22;52411;52.716;6.696;2022-08-01T09:55:11;20.40;99.90
65692;DHT22;52411;52.716;6.696;2022-08-01T09:57:37;20.40;99.90
65692;DHT22;52411;52.716;6.696;2022-08-01T10:00:04;20.40;99.90
65692;DHT22;52411;52.716;6.696;2022-08-01T10:02:35;20.40;99.90
65692;DHT22;52411;52.716;6.696;2022-08-01T10:05:07;20.50;99.90
65692;DHT22;52411;52.716;6.696;2022-08-01T10:07:34;20.60;99.90
65692;DHT22;52411;52.716;6.696;2022-08-01T10:10:20;20.70;99.90
65692;DHT22;52411;52.716;6.696;2022-08-01T10:12:45;20.90;99.90
65692;DHT22;52411;52.716;6.696;2022-08-01T10:15:16;20.90;99.90
65692;DHT22;52411;52.716;6.696;2022-08-01T10:17:52;20.90;99.90
65692;DHT22;52411;52.716;6.696;2022-08-01T10:20:24;21.10;99.90
65692;DHT22;52411;52.716;6.696;2022-08-01T10:22:52;20.90;99.90
65692;DHT22;52411;52.716;6.696;2022-08-01T10:25:20;21.00;99.90
65692;DHT22;52411;52.716;6.696;2022-08-01T10:27:53;21.20;99.90
65692;DHT22;52411;52.716;6.696;2022-08-01T10:30:20;21.30;99.90
65692;DHT22;52411;52.716;6.696;2022-08-01T10:32:46;21.40;99.90
65692;DHT22;52411;52.716;6.696;2022-08-01T10:35:13;21.50;99.90
65692;DHT22;52411;52.716;6.696;2022-08-01T10:37:43;21.60;99.90
65692;DHT22;52411;52.716;6.696;2022-08-01T10:40:12;21.80;99.90
65692;DHT22;52411;52.716;6.696;2022-08-01T10:42:39;21.90;99.90
65692;DHT22;52411;52.716;6.696;2022-08-01T10:45:08;21.80;99.90
65692;DHT22;52411;52.716;6.696;2022-08-01T10:47:55;21.90;99.90
65692;DHT22;52411;52.716;6.696;2022-08-01T10:53:13;21.70;99.90
65692;DHT22;52411;52.716;6.696;2022-08-01T11:08:58;21.70;99.90
65692;DHT22;52411;52.716;6.696;2022-08-01T11:11:24;21.90;99.90
65692;DHT22;52411;52.716;6.696;2022-08-01T11:14:04;22.10;99.90
65692;DHT22;52411;52.716;6.696;2022-08-01T11:16:36;22.20;99.90
65692;DHT22;52411;52.716;6.696;2022-08-01T11:19:04;22.30;99.90
65692;DHT22;52411;52.716;6.696;2022-08-01T11:22:08;22.40;99.90
65692;DHT22;52411;52.716;6.696;2022-08-01T11:29:41;22.10;99.90
65692;DHT22;52411;52.716;6.696;2022-08-01T11:32:27;22.20;99.90
65692;DHT22;52411;52.716;6.696;2022-08-01T11:34:55;22.20;98.80
65692;DHT22;52411;52.716;6.696;2022-08-01T11:37:25;22.30;99.90
65692;DHT22;52411;52.716;6.696;2022-08-01T11:40:20;22.30;99.90
65692;DHT22;52411;52.716;6.696;2022-08-01T11:42:47;22.30;97.90
65692;DHT22;52411;52.716;6.696;2022-08-01T11:45:13;22.20;99.80
65692;DHT22;52411;52.716;6.696;2022-08-01T11:47:48;22.10;99.70
65692;DHT22;52411;52.716;6.696;2022-08-01T11:50:29;22.20;99.70
65692;DHT22;52411;52.716;6.696;2022-08-01T11:53:04;22.40;97.50
65692;DHT22;52411;52.716;6.696;2022-08-01T11:55:30;22.50;96.50
65692;DHT22;52411;52.716;6.696;2022-08-01T11:58:04;22.60;99.40
65692;DHT22;52411;52.716;6.696;2022-08-01T12:00:31;22.40;97.30
65692;DHT22;52411;52.716;6.696;2022-08-01T12:03:02;22.30;98.60
65692;DHT22;52411;52.716;6.696;2022-08-01T12:05:29;22.30;98.90
65692;DHT22;52411;52.716;6.696;2022-08-01T12:07:56;22.20;94.70
65692;DHT22;52411;52.716;6.696;2022-08-01T12:10:27;22.40;99.60
65692;DHT22;52411;52.716;6.696;2022-08-01T12:13:01;22.30;98.00
65692;DHT22;52411;52.716;6.696;2022-08-01T12:15:36;22.40;98.80
65692;DHT22;52411;52.716;6.696;2022-08-01T12:18:04;22.30;98.60
65692;DHT22;52411;52.716;6.696;2022-08-01T12:20:38;22.20;98.60
65692;DHT22;52411;52.716;6.696;2022-08-01T12:23:07;22.40;98.50
65692;DHT22;52411;52.716;6.696;2022-08-01T12:25:34;22.50;99.00
65692;DHT22;52411;52.716;6.696;2022-08-01T12:28:05;22.30;97.20
65692;DHT22;52411;52.716;6.696;2022-08-01T12:30:32;22.40;98.00
65692;DHT22;52411;52.716;6.696;2022-08-01T12:33:02;22.50;98.30
65692;DHT22;52411;52.716;6.696;2022-08-01T12:35:29;22.70;98.30
65692;DHT22;52411;52.716;6.696;2022-08-01T12:38:01;22.80;97.70
65692;DHT22;52411;52.716;6.696;2022-08-01T12:40:32;22.90;97.30
65692;DHT22;52411;52.716;6.696;2022-08-01T12:42:59;23.10;96.70
65692;DHT22;52411;52.716;6.696;2022-08-01T12:45:27;22.90;94.30
65692;DHT22;52411;52.716;6.696;2022-08-01T12:47:54;22.70;98.30
65692;DHT22;52411;52.716;6.696;2022-08-01T12:50:24;22.60;97.70
65692;DHT22;52411;52.716;6.696;2022-08-01T12:52:51;22.40;98.10
65692;DHT22;52411;52.716;6.696;2022-08-01T12:55:17;22.50;98.30
65692;DHT22;52411;52.716;6.696;2022-08-01T12:58:10;22.50;98.10
65692;DHT22;52411;52.716;6.696;2022-08-01T13:00:37;22.60;95.90
65692;DHT22;52411;52.716;6.696;2022-08-01T13:03:06;22.70;98.00
65692;DHT22;52411;52.716;6.696;2022-08-01T13:08:19;23.50;97.10
65692;DHT22;52411;52.716;6.696;2022-08-01T13:10:45;23.60;96.80
65692;DHT22;52411;52.716;6.696;2022-08-01T13:13:12;23.70;96.20
65692;DHT22;52411;52.716;6.696;2022-08-01T13:15:40;23.20;96.10
65692;DHT22;52411;52.716;6.696;2022-08-01T13:18:29;23.00;96.30
65692;DHT22;52411;52.716;6.696;2022-08-01T13:23:40;23.20;94.50
65692;DHT22;52411;52.716;6.696;2022-08-01T13:26:06;23.60;95.80
65692;DHT22;52411;52.716;6.696;2022-08-01T13:28:33;23.70;95.50
65692;DHT22;52411;52.716;6.696;2022-08-01T13:31:04;23.60;95.60
65692;DHT22;52411;52.716;6.696;2022-08-01T13:33:47;23.30;95.80
65692;DHT22;52411;52.716;6.696;2022-08-01T13:36:13;23.10;95.10
65692;DHT22;52411;52.716;6.696;2022-08-01T13:38:41;23.30;97.30
65692;DHT22;52411;52.716;6.696;2022-08-01T13:41:25;23.40;96.30
65692;DHT22;52411;52.716;6.696;2022-08-01T13:43:51;23.40;96.00
65692;DHT22;52411;52.716;6.696;2022-08-01T13:46:17;23.40;95.80
65692;DHT22;52411;52.716;6.696;2022-08-01T13:48:43;23.30;96.30
65692;DHT22;52411;52.716;6.696;2022-08-01T13:51:09;23.40;96.40
65692;DHT22;52411;52.716;6.696;2022-08-01T13:53:34;23.50;95.60
65692;DHT22;52411;52.716;6.696;2022-08-01T13:56:01;23.60;95.20
65692;DHT22;52411;52.716;6.696;2022-08-01T13:58:26;23.40;94.90
65692;DHT22;52411;52.716;6.696;2022-08-01T14:00:54;23.10;95.30
65692;DHT22;52411;52.716;6.696;2022-08-01T14:03:21;23.10;95.40
65692;DHT22;52411;52.716;6.696;2022-08-01T14:05:47;23.30;95.20
65692;DHT22;52411;52.716;6.696;2022-08-01T14:08:13;23.60;95.40
65692;DHT22;52411;52.716;6.696;2022-08-01T14:10:38;23.80;95.00
65692;DHT22;52411;52.716;6.696;2022-08-01T14:13:04;24.10;95.30
65692;DHT22;52411;52.716;6.696;2022-08-01T14:15:31;24.50;95.00
65692;DHT22;52411;52.716;6.696;2022-08-01T14:17:57;24.90;93.40
65692;DHT22;52411;52.716;6.696;2022-08-01T14:20:23;25.20;94.80
65692;DHT22;52411;52.716;6.696;2022-08-01T14:22:49;25.60;95.10
65692;DHT22;52411;52.716;6.696;2022-08-01T14:25:14;25.70;94.60
65692;DHT22;52411;52.716;6.696;2022-08-01T14:27:40;25.80;94.50
65692;DHT22;52411;52.716;6.696;2022-08-01T14:30:08;26.10;94.30
65692;DHT22;52411;52.716;6.696;2022-08-01T14:32:34;26.30;93.70
65692;DHT22;52411;52.716;6.696;2022-08-01T14:35:04;26.50;94.20
65692;DHT22;52411;52.716;6.696;2022-08-01T14:37:31;26.40;90.90
65692;DHT22;52411;52.716;6.696;2022-08-01T14:39:57;26.50;92.20
65692;DHT22;52411;52.716;6.696;2022-08-01T14:42:23;26.00;90.30
65692;DHT22;52411;52.716;6.696;2022-08-01T14:44:49;25.60;90.60
65692;DHT22;52411;52.716;6.696;2022-08-01T14:47:15;26.00;90.90
65692;DHT22;52411;52.716;6.696;2022-08-01T14:49:41;25.50;91.00
65692;DHT22;52411;52.716;6.696;2022-08-01T14:52:06;25.40;90.60
65692;DHT22;52411;52.716;6.696;2022-08-01T14:54:32;25.60;90.20
65692;DHT22;52411;52.716;6.696;2022-08-01T14:56:58;26.20;90.20
65692;DHT22;52411;52.716;6.696;2022-08-01T14:59:23;26.70;88.60
65692;DHT22;52411;52.716;6.696;2022-08-01T15:01:49;27.20;86.70
65692;DHT22;52411;52.716;6.696;2022-08-01T15:04:15;27.60;85.90
65692;DHT22;52411;52.716;6.696;2022-08-01T15:06:42;27.90;84.90
65692;DHT22;52411;52.716;6.696;2022-08-01T15:09:08;28.20;82.40
65692;DHT22;52411;52.716;6.696;2022-08-01T15:11:34;28.70;81.40
65692;DHT22;52411;52.716;6.696;2022-08-01T15:13:59;29.00;79.10
65692;DHT22;52411;52.716;6.696;2022-08-01T15:16:44;29.30;79.20
65692;DHT22;52411;52.716;6.696;2022-08-01T15:19:09;29.30;75.80
65692;DHT22;52411;52.716;6.696;2022-08-01T15:21:35;29.00;72.80
65692;DHT22;52411;52.716;6.696;2022-08-01T15:24:00;28.90;72.80
65692;DHT22;52411;52.716;6.696;2022-08-01T15:26:26;28.50;72.10
65692;DHT22;52411;52.716;6.696;2022-08-01T15:28:53;28.30;71.90
65692;DHT22;52411;52.716;6.696;2022-08-01T15:31:19;28.10;71.70
65692;DHT22;52411;52.716;6.696;2022-08-01T15:33:44;27.80;70.90
65692;DHT22;52411;52.716;6.696;2022-08-01T15:36:10;27.30;70.60
65692;DHT22;52411;52.716;6.696;2022-08-01T15:38:35;26.80;71.80
65692;DHT22;52411;52.716;6.696;2022-08-01T15:41:01;26.60;73.40
65692;DHT22;52411;52.716;6.696;2022-08-01T15:43:27;26.50;72.70
65692;DHT22;52411;52.716;6.696;2022-08-01T15:45:53;26.90;72.80
65692;DHT22;52411;52.716;6.696;2022-08-01T15:48:19;27.30;70.40
65692;DHT22;52411;52.716;6.696;2022-08-01T15:50:44;28.00;69.20
65692;DHT22;52411;52.716;6.696;2022-08-01T15:53:10;27.80;69.30
65692;DHT22;52411;52.716;6.696;2022-08-01T15:55:39;27.40;66.20
65692;DHT22;52411;52.716;6.696;2022-08-01T15:58:05;27.50;66.30
65692;DHT22;52411;52.716;6.696;2022-08-01T16:00:31;27.50;66.70
65692;DHT22;52411;52.716;6.696;2022-08-01T16:02:57;27.70;65.90
65692;DHT22;52411;52.716;6.696;2022-08-01T16:05:22;27.80;65.60
65692;DHT22;52411;52.716;6.696;2022-08-01T16:07:48;28.10;67.00
65692;DHT22;52411;52.716;6.696;2022-08-01T16:10:14;28.10;66.20
65692;DHT22;52411;52.716;6.696;2022-08-01T16:12:40;28.10;64.40
65692;DHT22;52411;52.716;6.696;2022-08-01T16:15:06;28.10;63.70
65692;DHT22;52411;52.716;6.696;2022-08-01T16:17:32;28.40;63.50
65692;DHT22;52411;52.716;6.696;2022-08-01T16:19:57;28.60;63.50
65692;DHT22;52411;52.716;6.696;2022-08-01T16:22:23;28.60;61.40